首页
METAR-TAF:

METAR-TAF

机场 :

安曼民航機場

安曼, 约旦

纬度: 31-59N, 经度: 035-59E, 海拔: 767米

当前天气观测

该预报发布于48分钟前的11:00 UTC
风速8节,风向
温度 27°C
湿度 39%
气压 1015 hPa
能見度: 4000
散云层高于3000英尺
浮尘

METAR: OJAM 191100Z 35008KT 4000 DU SCT030 27/12 Q1015 NOSIG

时间: 14:48 (11:48 UTC)

预报

该预报发布于48分钟前的11:00 UTC
预报有效从19日的 12点(UTC)到 20日的 18点(UTC)
风速6节,风向西
能見度: 4000
少量云层高于3000英尺
几率 40%
从 19日的 13点(UTC)到 19日的 17点(UTC)
能見度: 3000
浮尘
短暂存在
从 20日的 02点(UTC)到 20日的 06点(UTC)
风速1节,风向多变
能見度: 3000
轻雾

TAF: OJAM 191100Z 1912/2018 28006KT 4000 HZ FEW030 PROB40 1913/1917 3000 DU TEMPO 2002/2006 VRB01KT 3000 BR

超过4000个机场的气象观测和天气预报(METAR&TAF报告)。

可查询的气象台以黄色和红色小点在地图上表示。

将鼠标移到小点上方,可查看气象台名称。

然后点击查看天气观测和预报。

如需切换地图:点击带黑十字的绿色按钮放大地图;点击带横线的绿色按钮缩小地图;或者点击绿色箭头查看邻近地区的地图。


METAR-TAF: